createdAt,value
2018-06-19T00:01:44.358Z,101744.52
2018-06-19T00:04:14.068Z,101749.20
2018-06-19T00:06:43.608Z,101749.77
2018-06-19T00:09:12.982Z,101747.50
2018-06-19T00:11:42.390Z,101748.87
2018-06-19T00:14:11.489Z,101751.36
2018-06-19T00:16:40.534Z,101754.59
2018-06-19T00:19:10.445Z,101757.50
2018-06-19T00:21:50.143Z,101761.59
2018-06-19T00:24:19.998Z,101762.06
2018-06-19T00:26:49.729Z,101766.75
2018-06-19T00:29:18.815Z,101758.54
2018-06-19T00:31:47.906Z,101760.16
2018-06-19T00:34:17.476Z,101765.30
2018-06-19T00:36:46.539Z,101763.69
2018-06-19T00:39:15.811Z,101763.36
2018-06-19T00:41:44.752Z,101756.27
2018-06-19T00:44:14.058Z,101753.23
2018-06-19T00:46:46.676Z,101754.61
2018-06-19T00:49:16.003Z,101753.70
2018-06-19T00:51:45.053Z,101758.05
2018-06-19T00:54:14.597Z,101750.88
2018-06-19T00:57:00.701Z,101756.44
2018-06-19T00:59:30.092Z,101756.05
2018-06-19T01:02:01.139Z,101763.94
2018-06-19T01:04:30.141Z,101763.94
2018-06-19T01:06:59.880Z,101773.98
2018-06-19T01:09:29.994Z,101765.55
2018-06-19T01:11:59.356Z,101764.40
2018-06-19T01:14:28.351Z,101760.87
2018-06-19T01:16:57.670Z,101761.98
2018-06-19T01:19:27.269Z,101753.53
2018-06-19T01:21:56.759Z,101751.54
2018-06-19T01:24:25.830Z,101752.66
2018-06-19T01:26:54.826Z,101757.34
2018-06-19T01:29:24.222Z,101762.06
2018-06-19T01:31:53.197Z,101761.20
2018-06-19T01:34:22.239Z,101763.69
2018-06-19T01:36:52.354Z,101762.31
2018-06-19T01:39:22.154Z,101767.78
2018-06-19T01:41:51.977Z,101770.52
2018-06-19T01:44:22.084Z,101771.02
2018-06-19T01:46:52.285Z,101774.88
2018-06-19T01:49:21.502Z,101763.69
2018-06-19T01:51:50.389Z,101762.31
2018-06-19T01:54:19.941Z,101761.27
2018-06-19T01:56:49.102Z,101754.76
2018-06-19T01:59:18.099Z,101753.61
2018-06-19T02:01:47.504Z,101755.30
2018-06-19T02:04:16.720Z,101750.88
2018-06-19T02:06:46.170Z,101752.35
2018-06-19T02:09:15.562Z,101761.59
2018-06-19T02:11:44.770Z,101747.67
2018-06-19T02:14:13.983Z,101755.87
2018-06-19T02:16:43.547Z,101755.09
2018-06-19T02:19:13.122Z,101754.52
2018-06-19T02:21:42.373Z,101763.52
2018-06-19T02:24:11.315Z,101759.08
2018-06-19T02:26:40.507Z,101764.01
2018-06-19T02:29:09.900Z,101767.00
2018-06-19T02:31:38.895Z,101762.06
2018-06-19T02:34:07.877Z,101766.75
2018-06-19T02:36:36.882Z,101763.44
2018-06-19T02:39:09.191Z,101760.45
2018-06-19T02:41:39.085Z,101762.97
2018-06-19T02:44:10.046Z,101766.17
2018-06-19T02:46:39.013Z,101767.78
2018-06-19T02:49:08.279Z,101771.02
2018-06-19T02:51:37.477Z,101775.20
2018-06-19T02:54:06.902Z,101771.31
2018-06-19T02:56:35.886Z,101772.39
2018-06-19T02:59:04.872Z,101775.20
2018-06-19T03:01:34.173Z,101770.92
2018-06-19T03:04:03.435Z,101782.13
2018-06-19T03:06:33.831Z,101785.08
2018-06-19T03:09:03.302Z,101780.10
2018-06-19T03:11:32.676Z,101783.63
2018-06-19T03:14:01.956Z,101780.35
2018-06-19T03:16:31.216Z,101776.50
2018-06-19T03:19:00.157Z,101782.27
2018-06-19T03:21:29.837Z,101779.31
2018-06-19T03:23:59.068Z,101789.68
2018-06-19T03:26:27.967Z,101784.78
2018-06-19T03:28:57.295Z,101786.95
2018-06-19T03:31:26.983Z,101780.10
2018-06-19T03:33:56.554Z,101788.23
2018-06-19T03:36:25.770Z,101791.62
2018-06-19T03:38:55.154Z,101798.55
2018-06-19T03:41:24.324Z,101800.88
2018-06-19T03:43:53.914Z,101800.55
2018-06-19T03:46:22.851Z,101802.17
2018-06-19T03:48:51.999Z,101795.66
2018-06-19T03:51:21.147Z,101796.77
2018-06-19T03:53:50.201Z,101797.23
2018-06-19T03:56:19.582Z,101800.47
2018-06-19T03:58:48.537Z,101802.09
2018-06-19T04:01:18.606Z,101805.95
2018-06-19T04:03:47.844Z,101812.87
2018-06-19T04:06:16.820Z,101818.59
2018-06-19T04:08:46.136Z,101812.07
2018-06-19T04:11:15.322Z,101812.54
2018-06-19T04:13:44.411Z,101821.00
2018-06-19T04:16:14.934Z,101812.46
2018-06-19T04:18:45.752Z,101817.53
2018-06-19T04:21:15.865Z,101815.84
2018-06-19T04:23:44.964Z,101813.35
2018-06-19T04:26:14.024Z,101817.13
2018-06-19T04:28:43.111Z,101820.61
2018-06-19T04:31:12.348Z,101820.04
2018-06-19T04:33:41.765Z,101826.80
2018-06-19T04:36:11.557Z,101818.52
2018-06-19T04:38:40.627Z,101828.09
2018-06-19T04:41:09.725Z,101822.95
2018-06-19T04:43:39.402Z,101826.73
2018-06-19T04:46:08.640Z,101827.77
2018-06-19T04:48:38.164Z,101828.81
2018-06-19T04:51:07.377Z,101831.80
2018-06-19T04:53:36.926Z,101826.58
2018-06-19T04:56:07.022Z,101831.64
2018-06-19T04:58:36.495Z,101833.16
2018-06-19T05:01:06.115Z,101833.32
2018-06-19T05:03:35.665Z,101834.69
2018-06-19T05:06:05.121Z,101838.72
2018-06-19T05:08:34.923Z,101835.91
2018-06-19T05:11:04.362Z,101835.24
2018-06-19T05:13:34.045Z,101841.55
2018-06-19T05:16:03.739Z,101839.60
2018-06-19T05:18:33.553Z,101842.75
2018-06-19T05:21:03.097Z,101847.91
2018-06-19T05:23:32.599Z,101848.62
2018-06-19T05:26:01.723Z,101847.50
2018-06-19T05:28:30.751Z,101854.81
2018-06-19T05:30:59.966Z,101857.17
2018-06-19T05:33:29.075Z,101864.90
2018-06-19T05:35:59.217Z,101863.28
2018-06-19T05:38:28.413Z,101861.34
2018-06-19T05:40:57.769Z,101863.61
2018-06-19T05:43:27.952Z,101865.52
2018-06-19T05:45:57.508Z,101869.30
2018-06-19T05:48:27.076Z,101865.22
2018-06-19T05:50:57.416Z,101868.20
2018-06-19T05:53:26.842Z,101868.58
2018-06-19T05:55:56.286Z,101876.50
2018-06-19T05:58:25.656Z,101870.45
2018-06-19T06:00:55.578Z,101876.26
2018-06-19T06:03:25.253Z,101878.67
2018-06-19T06:05:54.935Z,101881.66
2018-06-19T06:08:24.059Z,101885.52
2018-06-19T06:10:53.463Z,101884.94
2018-06-19T06:13:22.848Z,101885.44
2018-06-19T06:15:51.922Z,101892.13
2018-06-19T06:18:22.092Z,101897.69
2018-06-19T06:20:51.161Z,101896.06
2018-06-19T06:23:20.477Z,101899.63
2018-06-19T06:25:49.482Z,101903.00
2018-06-19T06:28:18.692Z,101905.19
2018-06-19T06:30:48.041Z,101908.14
2018-06-19T06:33:17.711Z,101914.20
2018-06-19T06:35:47.075Z,101914.45
2018-06-19T06:38:16.227Z,101913.16
2018-06-19T06:40:45.192Z,101921.20
2018-06-19T06:43:14.093Z,101920.33
2018-06-19T06:45:43.751Z,101927.03
2018-06-19T06:48:13.147Z,101930.81
2018-06-19T06:50:42.624Z,101932.31
2018-06-19T06:53:11.795Z,101935.55
2018-06-19T06:55:40.925Z,101935.73
2018-06-19T06:58:10.039Z,101935.48
2018-06-19T07:00:39.249Z,101948.20
2018-06-19T07:03:08.491Z,101950.81
2018-06-19T07:05:37.575Z,101954.84
2018-06-19T07:08:06.385Z,101953.89
2018-06-19T07:10:35.198Z,101953.95
2018-06-19T07:13:05.039Z,101957.98
2018-06-19T07:15:34.361Z,101954.50
2018-06-19T07:18:03.707Z,101950.80
2018-06-19T07:20:33.189Z,101959.66
2018-06-19T07:23:02.163Z,101960.53
2018-06-19T07:25:31.589Z,101963.36
2018-06-19T07:28:00.452Z,101964.56
2018-06-19T07:30:30.095Z,101971.09
2018-06-19T07:32:58.898Z,101975.28
2018-06-19T07:35:27.982Z,101973.58
2018-06-19T07:37:56.856Z,101979.28
2018-06-19T07:40:25.993Z,101978.16
2018-06-19T07:42:55.142Z,101979.28
2018-06-19T07:45:24.585Z,101989.30
2018-06-19T07:47:53.444Z,101987.09
2018-06-19T07:50:22.594Z,101993.95
2018-06-19T07:52:51.736Z,101988.12
2018-06-19T07:55:21.252Z,101997.64
2018-06-19T07:57:50.760Z,102006.28
2018-06-19T08:00:19.925Z,102002.46
2018-06-19T08:02:49.115Z,102003.50
2018-06-19T08:05:19.142Z,102009.01
2018-06-19T08:07:48.471Z,102011.66
2018-06-19T08:10:17.644Z,102021.19
2018-06-19T08:12:47.050Z,102015.45
2018-06-19T08:15:16.208Z,102023.28
2018-06-19T08:17:45.456Z,102023.53
2018-06-19T08:20:14.356Z,102031.34
2018-06-19T08:22:43.252Z,102032.30
2018-06-19T08:25:12.123Z,102038.44
2018-06-19T08:27:41.708Z,102031.78
2018-06-19T08:30:10.788Z,102027.91
2018-06-19T08:32:39.943Z,102035.27
2018-06-19T08:35:09.107Z,102034.02
2018-06-19T08:37:38.131Z,102035.19
2018-06-19T08:40:07.047Z,102041.30
2018-06-19T08:42:35.978Z,102042.58
2018-06-19T08:45:05.513Z,102042.16
2018-06-19T08:47:34.956Z,102049.17
2018-06-19T08:50:03.816Z,102051.43
2018-06-19T08:52:33.135Z,102046.98
2018-06-19T08:55:02.199Z,102046.43
2018-06-19T08:57:31.322Z,102040.27
2018-06-19T09:00:00.182Z,102040.55
2018-06-19T09:02:29.530Z,102037.92
2018-06-19T09:04:59.068Z,102042.50
2018-06-19T09:07:28.225Z,102044.48
2018-06-19T09:09:57.088Z,102055.19
2018-06-19T09:12:26.725Z,102054.75
2018-06-19T09:14:55.541Z,102054.41
2018-06-19T09:17:25.100Z,102054.80
2018-06-19T09:19:53.950Z,102062.04
2018-06-19T09:22:22.877Z,102053.33
2018-06-19T09:24:52.269Z,102064.33
2018-06-19T09:27:21.503Z,102058.49
2018-06-19T09:29:50.737Z,102059.87
2018-06-19T09:32:19.928Z,102060.66
2018-06-19T09:34:49.353Z,102066.78
2018-06-19T09:37:18.594Z,102062.75
2018-06-19T09:39:47.747Z,102063.44
2018-06-19T09:42:16.889Z,102065.94
2018-06-19T09:44:46.101Z,102062.02
2018-06-19T09:47:15.374Z,102066.21
2018-06-19T09:49:44.706Z,102067.54
2018-06-19T09:52:13.538Z,102066.23
2018-06-19T09:54:42.403Z,102070.51
2018-06-19T09:57:11.684Z,102072.27
2018-06-19T09:59:40.863Z,102061.37
2018-06-19T10:02:09.741Z,102055.91
2018-06-19T10:04:38.905Z,102057.63
2018-06-19T10:07:08.358Z,102062.75
2018-06-19T10:09:37.419Z,102067.71
2018-06-19T10:12:06.513Z,102074.14
2018-06-19T10:14:36.228Z,102077.80
2018-06-19T10:17:05.093Z,102072.08
2018-06-19T10:19:34.166Z,102070.73
2018-06-19T10:22:03.074Z,102072.22
2018-06-19T10:24:32.010Z,102077.17
2018-06-19T10:27:01.714Z,102081.99
2018-06-19T10:29:31.428Z,102081.30
2018-06-19T10:32:00.683Z,102080.75
2018-06-19T10:34:29.924Z,102090.52
2018-06-19T10:36:59.038Z,102091.11
2018-06-19T10:39:28.293Z,102092.05
2018-06-19T10:41:57.685Z,102094.03
2018-06-19T10:44:26.765Z,102094.95
2018-06-19T10:46:56.144Z,102092.67
2018-06-19T10:49:26.232Z,102103.39
2018-06-19T10:51:55.494Z,102102.38
2018-06-19T10:54:24.893Z,102102.48
2018-06-19T10:56:54.272Z,102101.92
2018-06-19T10:59:23.618Z,102107.44
2018-06-19T11:01:53.016Z,102111.57
2018-06-19T11:04:22.142Z,102108.45
2018-06-19T11:06:51.049Z,102107.89
2018-06-19T11:09:20.036Z,102111.46
2018-06-19T11:11:49.011Z,102117.89
2018-06-19T11:14:18.355Z,102119.62
2018-06-19T11:16:47.209Z,102113.86
2018-06-19T11:19:16.254Z,102115.61
2018-06-19T11:21:46.057Z,102114.33
2018-06-19T11:24:15.199Z,102120.77
2018-06-19T11:26:44.416Z,102119.38
2018-06-19T11:29:13.618Z,102122.83
2018-06-19T11:31:42.455Z,102124.17
2018-06-19T11:34:11.253Z,102123.22
2018-06-19T11:36:40.514Z,102128.50
2018-06-19T11:39:12.290Z,102128.92
2018-06-19T11:41:42.159Z,102125.45
2018-06-19T11:44:11.028Z,102119.86
2018-06-19T11:46:39.893Z,102130.85
2018-06-19T11:49:08.746Z,102129.24
2018-06-19T11:51:37.767Z,102133.31
2018-06-19T11:54:07.064Z,102143.34
2018-06-19T11:56:36.159Z,102137.56
2018-06-19T11:59:05.410Z,102139.77
2018-06-19T12:01:34.586Z,102142.98
2018-06-19T12:04:03.450Z,102137.93
2018-06-19T12:06:32.662Z,102139.30
2018-06-19T12:09:02.141Z,102142.97
2018-06-19T12:11:32.050Z,102140.39
2018-06-19T12:14:01.527Z,102136.34
2018-06-19T12:16:31.646Z,102137.77
2018-06-19T12:19:00.910Z,102134.19
2018-06-19T12:21:30.200Z,102137.92
2018-06-19T12:23:59.539Z,102137.17
2018-06-19T12:26:28.377Z,102137.44
2018-06-19T12:28:57.297Z,102137.53
2018-06-19T12:31:26.203Z,102139.34
2018-06-19T12:33:55.473Z,102149.42
2018-06-19T12:36:24.788Z,102148.80
2018-06-19T12:38:54.276Z,102145.22
2018-06-19T12:41:23.636Z,102147.37
2018-06-19T12:43:52.618Z,102141.93
2018-06-19T12:46:21.577Z,102145.11
2018-06-19T12:48:50.434Z,102141.69
2018-06-19T12:52:00.185Z,102140.46
2018-06-19T12:54:41.126Z,102146.95
2018-06-19T12:57:09.971Z,102158.67
2018-06-19T12:59:38.870Z,102155.95
2018-06-19T13:02:07.808Z,102163.98
2018-06-19T13:04:47.656Z,102158.44
2018-06-19T13:07:16.580Z,102156.22
2018-06-19T13:09:45.708Z,102153.95
2018-06-19T13:13:25.204Z,102159.96
2018-06-19T13:15:55.351Z,102165.17
2018-06-19T13:18:36.367Z,102164.27
2018-06-19T13:21:05.585Z,102169.40
2018-06-19T13:23:34.512Z,102162.63
2018-06-19T13:26:03.762Z,102157.78
2018-06-19T13:29:50.880Z,102157.83
2018-06-19T13:32:20.074Z,102157.98
2018-06-19T13:34:49.280Z,102158.67
2018-06-19T13:37:19.060Z,102157.14
2018-06-19T13:39:49.046Z,102158.91
2018-06-19T13:42:43.935Z,102155.05
2018-06-19T13:45:13.185Z,102155.27
2018-06-19T13:47:42.205Z,102158.02
2018-06-19T13:50:11.684Z,102163.11
2018-06-19T13:52:40.671Z,102167.71
2018-06-19T13:57:27.533Z,102162.31
2018-06-19T13:59:57.386Z,102164.58
2018-06-19T14:02:26.646Z,102170.91
2018-06-19T14:04:56.896Z,102163.72
2018-06-19T14:07:27.260Z,102167.12
2018-06-19T14:10:07.971Z,102167.72
2018-06-19T14:13:14.012Z,102169.89
2018-06-19T14:15:47.867Z,102168.22
2018-06-19T14:18:18.305Z,102176.31
2018-06-19T14:20:47.996Z,102170.11
2018-06-19T14:23:17.143Z,102166.13
2018-06-19T14:25:46.317Z,102163.33
2018-06-19T14:28:15.196Z,102158.39
2018-06-19T14:30:44.700Z,102163.94
2018-06-19T14:33:13.591Z,102155.39
2018-06-19T14:35:42.425Z,102167.71
2018-06-19T14:38:11.283Z,102166.94
2018-06-19T14:40:40.449Z,102164.37
2018-06-19T14:43:10.163Z,102168.59
2018-06-19T14:45:39.569Z,102166.79
2018-06-19T14:48:08.371Z,102163.94
2018-06-19T14:50:37.744Z,102164.72
2018-06-19T14:53:07.129Z,102174.88
2018-06-19T14:55:36.512Z,102173.58
2018-06-19T14:58:05.563Z,102179.31
2018-06-19T15:00:35.164Z,102180.41
2018-06-19T15:03:04.500Z,102179.53
2018-06-19T15:05:33.626Z,102173.85
2018-06-19T15:08:02.740Z,102175.74
2018-06-19T15:10:31.856Z,102180.09
2018-06-19T15:13:00.796Z,102170.91
2018-06-19T15:15:30.196Z,102174.39
2018-06-19T15:17:59.702Z,102175.69
2018-06-19T15:20:29.129Z,102177.66
2018-06-19T15:22:58.076Z,102181.72
2018-06-19T15:25:26.936Z,102181.19
2018-06-19T15:27:56.293Z,102180.14
2018-06-19T15:30:25.292Z,102181.39
2018-06-19T15:32:54.362Z,102177.92
2018-06-19T15:35:23.787Z,102183.73
2018-06-19T15:37:52.950Z,102175.80
2018-06-19T15:40:22.799Z,102182.16
2018-06-19T15:42:51.632Z,102176.69
2018-06-19T15:45:20.719Z,102181.77
2018-06-19T15:47:50.222Z,102178.14
2018-06-19T15:50:19.370Z,102179.98
2018-06-19T15:52:48.290Z,102178.83
2018-06-19T15:55:17.533Z,102178.63
2018-06-19T15:57:46.353Z,102182.84
2018-06-19T16:00:15.333Z,102173.30
2018-06-19T16:02:44.791Z,102174.81
2018-06-19T16:05:13.621Z,102174.95
2018-06-19T16:07:48.319Z,102180.84
2018-06-19T16:10:17.145Z,102184.89
2018-06-19T16:12:46.647Z,102180.14
2018-06-19T16:15:16.323Z,102176.95
2018-06-19T16:17:45.549Z,102176.23
2018-06-19T16:20:14.680Z,102175.38
2018-06-19T16:22:43.783Z,102175.34
2018-06-19T16:25:12.662Z,102171.55
2018-06-19T16:27:41.884Z,102169.55
2018-06-19T16:30:10.667Z,102171.98
2018-06-19T16:32:39.508Z,102178.89
2018-06-19T16:35:08.590Z,102176.00
2018-06-19T16:37:38.075Z,102170.27
2018-06-19T16:40:07.602Z,102167.50
2018-06-19T16:42:37.685Z,102170.73
2018-06-19T16:45:06.737Z,102183.33
2018-06-19T16:47:36.189Z,102175.95
2018-06-19T16:50:05.006Z,102184.17
2018-06-19T16:52:33.980Z,102177.52
2018-06-19T16:55:03.797Z,102179.88
2018-06-19T16:57:33.171Z,102177.59
2018-06-19T17:00:02.993Z,102178.75
2018-06-19T17:02:32.804Z,102183.94
2018-06-19T17:05:01.719Z,102182.66
2018-06-19T17:07:30.579Z,102182.79
2018-06-19T17:09:59.515Z,102184.96
2018-06-19T17:12:28.301Z,102184.30
2018-06-19T17:14:57.494Z,102183.63
2018-06-19T17:17:26.891Z,102177.77
2018-06-19T17:19:55.800Z,102176.78
2018-06-19T17:22:24.839Z,102172.41
2018-06-19T17:24:53.982Z,102173.25
2018-06-19T17:27:23.469Z,102179.02
2018-06-19T17:29:52.324Z,102176.63
2018-06-19T17:32:21.488Z,102186.06
2018-06-19T17:34:50.333Z,102183.98
2018-06-19T17:37:19.778Z,102174.68
2018-06-19T17:39:48.918Z,102176.64
2018-06-19T17:42:17.780Z,102172.70
2018-06-19T17:44:46.640Z,102172.04
2018-06-19T17:47:15.833Z,102173.30
2018-06-19T17:49:44.733Z,102171.12
2018-06-19T17:52:13.621Z,102169.75
2018-06-19T17:54:42.815Z,102170.66
2018-06-19T17:57:12.476Z,102166.88
2018-06-19T17:59:41.604Z,102168.50
2018-06-19T18:02:10.491Z,102166.01
2018-06-19T18:04:39.775Z,102161.98
2018-06-19T18:07:08.877Z,102166.56
2018-06-19T18:09:38.335Z,102166.01
2018-06-19T18:12:07.685Z,102165.53
2018-06-19T18:14:36.639Z,102169.68
2018-06-19T18:17:05.831Z,102167.27
2018-06-19T18:19:35.220Z,102166.72
2018-06-19T18:22:04.832Z,102168.09
2018-06-19T18:24:33.715Z,102175.23
2018-06-19T18:27:02.596Z,102170.30
2018-06-19T18:29:31.567Z,102171.56
2018-06-19T18:32:00.691Z,102171.36
2018-06-19T18:34:29.693Z,102170.09
2018-06-19T18:36:58.778Z,102169.39
2018-06-19T18:39:27.636Z,102168.59
2018-06-19T18:41:57.071Z,102171.11
2018-06-19T18:44:26.546Z,102165.48
2018-06-19T18:46:55.820Z,102160.78
2018-06-19T18:49:25.386Z,102161.81
2018-06-19T18:51:54.234Z,102154.12
2018-06-19T18:54:23.075Z,102160.91
2018-06-19T18:56:51.889Z,102162.72
2018-06-19T18:59:21.237Z,102158.58
2018-06-19T19:01:50.326Z,102164.89
2018-06-19T19:04:19.137Z,102168.71
2018-06-19T19:06:48.483Z,102167.45
2018-06-19T19:09:17.952Z,102167.09
2018-06-19T19:11:47.105Z,102167.20
2018-06-19T19:14:16.244Z,102168.03
2018-06-19T19:16:50.835Z,102169.25
2018-06-19T19:19:23.038Z,102167.87
2018-06-19T19:21:52.555Z,102172.71
2018-06-19T19:24:21.934Z,102175.11
2018-06-19T19:26:56.018Z,102174.66
2018-06-19T19:29:30.302Z,102180.17
2018-06-19T19:31:59.533Z,102175.13
2018-06-19T19:34:28.755Z,102176.14
2018-06-19T19:37:03.012Z,102177.74
2018-06-19T19:39:32.165Z,102183.95
2018-06-19T19:42:00.999Z,102186.58
2018-06-19T19:44:30.448Z,102193.47
2018-06-19T19:47:04.414Z,102189.09
2018-06-19T19:49:33.347Z,102193.58
2018-06-19T19:52:02.178Z,102193.69
2018-06-19T19:54:32.004Z,102197.94
2018-06-19T19:57:06.201Z,102199.42
2018-06-19T19:59:35.103Z,102199.77
2018-06-19T20:02:03.993Z,102202.63
2018-06-19T20:04:33.189Z,102203.56
2018-06-19T20:07:02.651Z,102208.59
2018-06-19T20:09:31.566Z,102212.38
2018-06-19T20:12:00.417Z,102202.73
2018-06-19T20:16:57.845Z,102204.48
2018-06-19T20:19:27.011Z,102209.41
2018-06-19T20:21:56.015Z,102205.86
2018-06-19T20:24:25.819Z,102212.86
2018-06-19T20:26:55.379Z,102217.45
2018-06-19T20:29:25.001Z,102214.80
2018-06-19T20:31:54.291Z,102215.59
2018-06-19T20:34:23.481Z,102209.05
2018-06-19T20:36:53.020Z,102213.52
2018-06-19T20:39:22.097Z,102214.42
2018-06-19T20:41:51.235Z,102220.87
2018-06-19T20:44:20.076Z,102216.11
2018-06-19T20:46:49.028Z,102218.84
2018-06-19T20:49:18.231Z,102212.50
2018-06-19T20:51:48.012Z,102214.91
2018-06-19T20:54:16.879Z,102206.02
2018-06-19T20:56:46.279Z,102211.19
2018-06-19T20:59:16.309Z,102211.73
2018-06-19T21:02:01.720Z,102208.77
2018-06-19T21:04:31.138Z,102208.77
2018-06-19T21:07:00.130Z,102203.02
2018-06-19T21:09:29.038Z,102201.16
2018-06-19T21:11:58.268Z,102209.52
2018-06-19T21:14:27.805Z,102210.21
2018-06-19T21:16:57.105Z,102207.22
2018-06-19T21:19:26.562Z,102203.91
2018-06-19T21:21:55.952Z,102206.18
2018-06-19T21:24:25.039Z,102200.91
2018-06-19T21:26:54.353Z,102202.63
2018-06-19T21:29:23.268Z,102197.78
2018-06-19T21:31:52.585Z,102201.22
2018-06-19T21:34:21.487Z,102198.91
2018-06-19T21:36:50.607Z,102195.66
2018-06-19T21:39:20.167Z,102196.59
2018-06-19T21:41:49.422Z,102198.55
2018-06-19T21:44:18.394Z,102196.69
2018-06-19T21:46:47.613Z,102204.70
2018-06-19T21:49:17.130Z,102196.00
2018-06-19T21:51:46.616Z,102189.66
2018-06-19T21:54:15.796Z,102191.97
2018-06-19T21:56:44.718Z,102194.72
2018-06-19T21:59:14.176Z,102191.14
2018-06-19T22:01:43.959Z,102196.44
2018-06-19T22:04:13.143Z,102189.96
2018-06-19T22:06:42.068Z,102193.05
2018-06-19T22:09:11.263Z,102188.47
2018-06-19T22:11:40.552Z,102185.48
2018-06-19T22:14:09.798Z,102185.81
2018-06-19T22:16:39.012Z,102180.41
2018-06-19T22:19:08.033Z,102185.77
2018-06-19T22:21:37.828Z,102179.53
2018-06-19T22:24:07.517Z,102177.47
2018-06-19T22:26:36.969Z,102174.47
2018-06-19T22:29:06.070Z,102179.73
2018-06-19T22:31:35.349Z,102176.28
2018-06-19T22:34:04.639Z,102171.22
2018-06-19T22:36:34.167Z,102177.02
2018-06-19T22:39:03.311Z,102182.87
2018-06-19T22:41:32.288Z,102178.28
2018-06-19T22:44:02.162Z,102180.70
2018-06-19T22:46:31.400Z,102183.05
2018-06-19T22:49:00.836Z,102179.02
2018-06-19T22:51:31.400Z,102172.83
2018-06-19T22:54:01.704Z,102174.20
2018-06-19T22:56:34.273Z,102176.95
2018-06-19T22:59:03.269Z,102177.62
2018-06-19T23:01:32.338Z,102172.22
2018-06-19T23:04:01.753Z,102162.78
2018-06-19T23:06:30.718Z,102166.66
2018-06-19T23:09:00.153Z,102153.92
2018-06-19T23:11:29.178Z,102153.31
2018-06-19T23:13:58.586Z,102150.84
2018-06-19T23:16:29.323Z,102151.58
2018-06-19T23:18:58.326Z,102150.54
2018-06-19T23:21:27.449Z,102149.16
2018-06-19T23:23:56.415Z,102149.59
2018-06-19T23:26:25.378Z,102148.06
2018-06-19T23:28:54.608Z,102152.31
2018-06-19T23:31:24.203Z,102148.28
2018-06-19T23:33:53.456Z,102150.20
2018-06-19T23:36:22.669Z,102146.27
2018-06-19T23:38:51.947Z,102145.55
2018-06-19T23:41:21.144Z,102139.57
2018-06-19T23:43:50.603Z,102143.20
2018-06-19T23:46:19.686Z,102139.66
2018-06-19T23:48:48.958Z,102143.29
2018-06-19T23:51:18.291Z,102142.92
2018-06-19T23:53:47.871Z,102142.52
2018-06-19T23:56:17.166Z,102139.15
2018-06-19T23:58:46.758Z,102137.38
